Terminal Aerodrome Forecast
Issued by NWS Billings, MT

Home | Current Version | Previous Version | Text Only | Print | Product List | Glossary On
Versions: 1 2 3 4 5 6 7 8 9 10 11 12 13 14 15
000
FTUS45 KBYZ 271120
TAFSHR
TAF
KSHR 271120Z 2712/2812 30008KT P6SM FEW050 SCT100
     FM271800 VRB05KT P6SM SCT050 BKN150
     FM272300 VRB05KT P6SM VCTS FEW040CB BKN100
     FM280400 VRB05KT P6SM VCSH FEW030 BKN060=

USA.gov is the U.S. government's official web portal to all federal, state and local government web resources and services.